Anderson, South Carolina
Current Conditions -  °F | °C
As of 10:56 AM on Friday 28 Nov 2014 (Local Time) from KAND Reporting Station
Clear Clear  
Wind Chill:   Ceiling: Unl
Heat Index:   Visibility: 10mi
Dew Point: -7°   Wind: 5mph
Humidity: 46%   Direction: NA
Pressure: 30.39"   Gusts: NA
Location:  34.5°N, 82.65°W
Report Text: KAND 281556Z AUTO VRB04KT 10SM CLR 04/M07 A3039 RMK AO2 SLP295 T00391067
Loading
Personal Weather Stations






























Interactive Weather Map New forecast layout! Learn more

10-Day Weather Forecast

Advertisements
Track Severe Weather on mobile